createdAt,value
2022-11-02T00:00:25.318Z,79.30
2022-11-02T00:01:25.139Z,79.20
2022-11-02T00:02:25.560Z,79.41
2022-11-02T00:03:25.497Z,79.20
2022-11-02T00:04:24.967Z,80.11
2022-11-02T00:05:25.079Z,79.50
2022-11-02T00:06:25.360Z,79.81
2022-11-02T00:07:25.107Z,79.91
2022-11-02T00:08:25.164Z,79.91
2022-11-02T00:09:25.124Z,79.71
2022-11-02T00:10:25.017Z,80.02
2022-11-02T00:11:24.900Z,79.71
2022-11-02T00:12:24.905Z,79.91
2022-11-02T00:13:24.891Z,80.52
2022-11-02T00:14:24.876Z,79.81
2022-11-02T00:15:24.872Z,81.74
2022-11-02T00:16:25.071Z,83.27
2022-11-02T00:17:25.017Z,85.41
2022-11-02T00:18:25.149Z,86.16
2022-11-02T00:19:24.872Z,84.53
2022-11-02T00:20:25.098Z,87.63
2022-11-02T00:21:24.851Z,88.14
2022-11-02T00:22:24.775Z,87.73
2022-11-02T00:23:24.774Z,89.20
2022-11-02T00:24:24.804Z,89.81
2022-11-02T00:25:24.716Z,89.81
2022-11-02T00:26:24.755Z,89.75
2022-11-02T00:27:24.954Z,90.47
2022-11-02T00:28:24.695Z,88.73
2022-11-02T00:29:24.676Z,88.73
2022-11-02T00:30:24.890Z,88.93
2022-11-02T00:31:24.717Z,90.16
2022-11-02T00:32:24.706Z,87.92
2022-11-02T00:33:24.762Z,88.32
2022-11-02T00:34:24.634Z,87.88
2022-11-02T00:35:24.635Z,87.98
2022-11-02T00:36:24.644Z,87.77
2022-11-02T00:37:24.598Z,87.77
2022-11-02T00:38:24.645Z,88.39
2022-11-02T00:39:24.713Z,88.39
2022-11-02T00:40:24.707Z,88.59
2022-11-02T00:41:24.749Z,87.26
2022-11-02T00:42:24.767Z,86.96
2022-11-02T00:43:24.666Z,87.77
2022-11-02T00:44:24.805Z,86.96
2022-11-02T00:45:24.531Z,85.63
2022-11-02T00:46:24.528Z,85.19
2022-11-02T00:47:24.510Z,84.88
2022-11-02T00:48:24.503Z,85.80
2022-11-02T00:49:24.509Z,84.47
2022-11-02T00:50:24.535Z,84.23
2022-11-02T00:51:24.508Z,84.84
2022-11-02T00:52:24.456Z,84.53
2022-11-02T00:53:24.468Z,84.43
2022-11-02T00:54:27.524Z,83.72
2022-11-02T00:55:24.445Z,83.21
2022-11-02T00:56:24.465Z,84.03
2022-11-02T00:57:24.429Z,83.62
2022-11-02T00:58:24.400Z,83.82
2022-11-02T00:59:24.414Z,83.51
2022-11-02T01:00:24.394Z,83.62
2022-11-02T01:01:25.107Z,83.17
2022-11-02T01:02:24.736Z,83.58
2022-11-02T01:03:24.446Z,83.58
2022-11-02T01:04:24.306Z,83.58
2022-11-02T01:05:24.623Z,82.76
2022-11-02T01:06:24.330Z,83.37
2022-11-02T01:07:24.299Z,83.07
2022-11-02T01:08:24.794Z,82.56
2022-11-02T01:09:24.307Z,82.46
2022-11-02T01:10:24.294Z,82.56
2022-11-02T01:11:24.273Z,82.87
2022-11-02T01:12:24.267Z,82.35
2022-11-02T01:13:24.245Z,83.37
2022-11-02T01:14:24.623Z,83.37
2022-11-02T01:15:24.466Z,83.58
2022-11-02T01:16:24.413Z,83.48
2022-11-02T01:17:24.429Z,82.05
2022-11-02T01:18:24.227Z,82.26
2022-11-02T01:19:24.364Z,82.76
2022-11-02T01:20:24.340Z,82.76
2022-11-02T01:21:24.330Z,81.95
2022-11-02T01:22:24.156Z,82.26
2022-11-02T01:23:24.121Z,82.76
2022-11-02T01:24:24.195Z,83.07
2022-11-02T01:25:24.176Z,83.27
2022-11-02T01:26:24.164Z,83.07
2022-11-02T01:27:24.142Z,82.90
2022-11-02T01:28:24.127Z,83.21
2022-11-02T01:29:24.332Z,83.72
2022-11-02T01:30:24.197Z,83.72
2022-11-02T01:31:24.063Z,83.51
2022-11-02T01:32:24.127Z,83.51
2022-11-02T01:33:24.397Z,83.72
2022-11-02T01:34:24.052Z,83.86
2022-11-02T01:35:24.068Z,84.47
2022-11-02T01:36:24.158Z,84.37
2022-11-02T01:37:24.059Z,84.27
2022-11-02T01:38:24.262Z,83.96
2022-11-02T01:39:24.222Z,83.96
2022-11-02T01:40:23.990Z,84.27
2022-11-02T01:41:23.989Z,84.47
2022-11-02T01:42:24.009Z,84.27
2022-11-02T01:43:23.976Z,84.17
2022-11-02T01:44:24.190Z,84.06
2022-11-02T01:45:23.950Z,84.47
2022-11-02T01:46:23.987Z,84.78
2022-11-02T01:47:24.117Z,84.37
2022-11-02T01:48:23.926Z,84.58
2022-11-02T01:49:23.923Z,83.96
2022-11-02T01:50:24.124Z,83.51
2022-11-02T01:51:23.910Z,83.62
2022-11-02T01:52:23.861Z,83.11
2022-11-02T01:53:23.872Z,83.21
2022-11-02T01:54:23.846Z,83.11
2022-11-02T01:55:23.902Z,83.11
2022-11-02T01:57:23.848Z,83.07
2022-11-02T01:58:23.836Z,83.37
2022-11-02T01:59:23.835Z,83.11
2022-11-02T02:00:23.802Z,83.07
2022-11-02T02:01:23.959Z,82.87
2022-11-02T02:02:23.964Z,83.07
2022-11-02T02:03:23.791Z,82.87
2022-11-02T02:04:23.845Z,82.56
2022-11-02T02:05:23.757Z,82.21
2022-11-02T02:06:23.744Z,82.52
2022-11-02T02:07:23.741Z,81.60
2022-11-02T02:08:24.325Z,81.57
2022-11-02T02:09:23.718Z,81.37
2022-11-02T02:10:23.732Z,81.26
2022-11-02T02:11:23.707Z,81.46
2022-11-02T02:12:23.677Z,81.37
2022-11-02T02:13:23.772Z,81.37
2022-11-02T02:14:23.689Z,81.51
2022-11-02T02:15:23.649Z,81.81
2022-11-02T02:16:23.713Z,81.81
2022-11-02T02:17:24.073Z,81.81
2022-11-02T02:18:23.597Z,81.81
2022-11-02T02:19:23.609Z,81.81
2022-11-02T02:20:23.611Z,81.81
2022-11-02T02:21:23.607Z,82.21
2022-11-02T02:22:23.782Z,81.91
2022-11-02T02:23:23.560Z,81.81
2022-11-02T02:24:23.767Z,82.32
2022-11-02T02:25:23.585Z,82.05
2022-11-02T02:26:24.113Z,82.05
2022-11-02T02:27:23.521Z,82.56
2022-11-02T02:28:23.745Z,82.76
2022-11-02T02:29:23.660Z,82.66
2022-11-02T02:30:23.549Z,82.56
2022-11-02T02:31:23.631Z,82.76
2022-11-02T02:32:23.625Z,82.56
2022-11-02T02:33:23.500Z,82.66
2022-11-02T02:34:23.424Z,82.46
2022-11-02T02:35:23.635Z,82.35
2022-11-02T02:36:23.421Z,82.21
2022-11-02T02:37:23.494Z,82.32
2022-11-02T02:38:23.447Z,82.01
2022-11-02T02:39:23.655Z,81.91
2022-11-02T02:40:23.437Z,81.71
2022-11-02T02:41:23.508Z,81.81
2022-11-02T02:42:23.618Z,81.51
2022-11-02T02:43:23.624Z,81.81
2022-11-02T02:44:23.407Z,82.01
2022-11-02T02:45:23.509Z,82.12
2022-11-02T02:46:23.389Z,81.81
2022-11-02T02:47:23.590Z,82.01
2022-11-02T02:48:23.371Z,82.21
2022-11-02T02:49:23.328Z,81.51
2022-11-02T02:50:23.436Z,81.40
2022-11-02T02:51:23.294Z,81.81
2022-11-02T02:52:23.254Z,81.51
2022-11-02T02:53:23.290Z,81.71
2022-11-02T02:54:23.257Z,81.91
2022-11-02T02:55:23.249Z,81.51
2022-11-02T02:56:23.456Z,81.71
2022-11-02T02:57:23.420Z,81.60
2022-11-02T02:58:23.355Z,81.60
2022-11-02T02:59:23.271Z,81.71
2022-11-02T03:00:23.391Z,81.40
2022-11-02T03:01:23.281Z,81.81
2022-11-02T03:02:23.284Z,81.71
2022-11-02T03:03:23.489Z,81.71
2022-11-02T03:04:23.177Z,81.60
2022-11-02T03:05:23.328Z,81.60
2022-11-02T03:06:23.175Z,81.71
2022-11-02T03:07:23.208Z,81.91
2022-11-02T03:08:23.141Z,81.57
2022-11-02T03:09:23.535Z,81.57
2022-11-02T03:10:23.308Z,81.71
2022-11-02T03:11:23.537Z,81.51
2022-11-02T03:12:23.114Z,81.81
2022-11-02T03:13:23.192Z,81.91
2022-11-02T03:14:23.139Z,82.01
2022-11-02T03:15:23.389Z,82.21
2022-11-02T03:16:23.050Z,82.01
2022-11-02T03:17:23.255Z,81.91
2022-11-02T03:18:23.203Z,81.71
2022-11-02T03:19:23.161Z,82.01
2022-11-02T03:20:23.053Z,81.51
2022-11-02T03:21:23.156Z,81.71
2022-11-02T03:22:23.147Z,81.81
2022-11-02T03:23:22.983Z,81.60
2022-11-02T03:24:23.385Z,81.51
2022-11-02T03:25:23.029Z,81.71
2022-11-02T03:26:22.982Z,81.81
2022-11-02T03:27:22.965Z,81.51
2022-11-02T03:28:23.115Z,81.81
2022-11-02T03:29:23.360Z,81.71
2022-11-02T03:30:22.908Z,81.40
2022-11-02T03:31:22.899Z,81.51
2022-11-02T03:32:22.893Z,81.20
2022-11-02T03:33:22.857Z,81.91
2022-11-02T03:34:23.090Z,81.81
2022-11-02T03:35:22.850Z,81.60
2022-11-02T03:36:22.941Z,81.51
2022-11-02T03:37:22.863Z,81.60
2022-11-02T03:38:22.862Z,81.85
2022-11-02T03:39:23.289Z,82.26
2022-11-02T03:40:22.835Z,82.05
2022-11-02T03:41:23.216Z,82.05
2022-11-02T03:42:23.035Z,82.05
2022-11-02T03:43:23.116Z,82.15
2022-11-02T03:44:22.947Z,82.05
2022-11-02T03:45:22.880Z,82.26
2022-11-02T03:46:22.924Z,82.05
2022-11-02T03:47:22.727Z,82.15
2022-11-02T03:48:22.732Z,82.26
2022-11-02T03:49:22.714Z,82.46
2022-11-02T03:50:23.339Z,82.26
2022-11-02T03:51:22.725Z,82.35
2022-11-02T03:52:22.689Z,82.40
2022-11-02T03:53:22.875Z,82.80
2022-11-02T03:54:22.679Z,82.70
2022-11-02T03:55:22.818Z,82.80
2022-11-02T03:56:22.987Z,82.70
2022-11-02T03:57:22.703Z,82.50
2022-11-02T03:58:22.955Z,82.50
2022-11-02T03:59:22.787Z,82.60
2022-11-02T04:00:22.887Z,82.70
2022-11-02T04:01:22.790Z,82.40
2022-11-02T04:02:22.820Z,82.60
2022-11-02T04:03:22.557Z,82.60
2022-11-02T04:04:22.782Z,82.50
2022-11-02T04:05:22.768Z,82.29
2022-11-02T04:06:22.656Z,82.60
2022-11-02T04:07:22.654Z,82.60
2022-11-02T04:08:22.920Z,82.50
2022-11-02T04:09:22.863Z,82.70
2022-11-02T04:10:22.703Z,82.19
2022-11-02T04:11:22.702Z,82.19
2022-11-02T04:12:22.484Z,82.50
2022-11-02T04:13:22.618Z,82.29
2022-11-02T04:14:22.634Z,82.29
2022-11-02T04:15:22.492Z,82.60
2022-11-02T04:16:27.767Z,82.70
2022-11-02T04:17:22.698Z,82.80
2022-11-02T04:18:22.430Z,82.80
2022-11-02T04:19:22.444Z,82.90
2022-11-02T04:20:22.410Z,83.11
2022-11-02T04:21:22.378Z,83.01
2022-11-02T04:22:22.375Z,83.31
2022-11-02T04:23:22.553Z,83.25
2022-11-02T04:24:22.352Z,82.94
2022-11-02T04:25:22.358Z,83.15
2022-11-02T04:26:22.392Z,83.35
2022-11-02T04:27:22.340Z,83.45
2022-11-02T04:28:22.342Z,83.56
2022-11-02T04:29:22.313Z,83.56
2022-11-02T04:30:22.291Z,83.65
2022-11-02T04:31:22.284Z,83.76
2022-11-02T04:32:22.286Z,83.56
2022-11-02T04:33:22.442Z,83.45
2022-11-02T04:34:22.234Z,83.25
2022-11-02T04:35:22.228Z,83.04
2022-11-02T04:36:22.348Z,83.35
2022-11-02T04:37:22.300Z,83.56
2022-11-02T04:38:22.492Z,83.15
2022-11-02T04:39:22.202Z,83.04
2022-11-02T04:40:22.245Z,83.25
2022-11-02T04:41:22.231Z,83.04
2022-11-02T04:42:22.174Z,83.04
2022-11-02T04:43:22.174Z,82.84
2022-11-02T04:44:24.904Z,82.80
2022-11-02T04:45:22.195Z,82.90
2022-11-02T04:46:22.162Z,83.15
2022-11-02T04:47:22.319Z,83.15
2022-11-02T04:48:22.145Z,83.15
2022-11-02T04:49:22.133Z,83.35
2022-11-02T04:50:22.276Z,83.45
2022-11-02T04:51:22.104Z,83.25
2022-11-02T04:52:22.190Z,83.45
2022-11-02T04:53:22.222Z,83.35
2022-11-02T04:54:22.522Z,83.45
2022-11-02T04:55:22.352Z,83.04
2022-11-02T04:56:22.069Z,83.35
2022-11-02T04:57:22.223Z,83.86
2022-11-02T04:58:22.001Z,83.56
2022-11-02T04:59:22.101Z,83.56
2022-11-02T05:00:22.145Z,83.80
2022-11-02T05:01:22.201Z,83.35
2022-11-02T05:02:22.172Z,83.65
2022-11-02T05:03:22.162Z,83.25
2022-11-02T05:04:21.947Z,83.35
2022-11-02T05:05:21.956Z,83.25
2022-11-02T05:06:22.226Z,82.54
2022-11-02T05:07:22.156Z,82.74
2022-11-02T05:08:22.484Z,82.33
2022-11-02T05:09:21.914Z,82.84
2022-11-02T05:10:22.738Z,82.54
2022-11-02T05:11:22.173Z,82.33
2022-11-02T05:12:26.623Z,82.74
2022-11-02T05:13:22.029Z,82.74
2022-11-02T05:14:22.438Z,82.94
2022-11-02T05:15:22.057Z,82.43
2022-11-02T05:16:21.860Z,82.54
2022-11-02T05:17:21.829Z,82.23
2022-11-02T05:19:21.870Z,82.23
2022-11-02T05:20:22.127Z,82.13
2022-11-02T05:21:21.880Z,82.54
2022-11-02T05:22:21.783Z,81.82
2022-11-02T05:23:22.248Z,82.23
2022-11-02T05:24:21.775Z,81.99
2022-11-02T05:25:22.358Z,81.88
2022-11-02T05:26:22.080Z,81.79
2022-11-02T05:27:21.927Z,81.38
2022-11-02T05:28:21.801Z,81.58
2022-11-02T05:29:21.807Z,81.58
2022-11-02T05:30:21.897Z,81.68
2022-11-02T05:31:21.854Z,81.38
2022-11-02T05:32:21.851Z,80.87
2022-11-02T05:33:24.484Z,81.38
2022-11-02T05:34:21.725Z,81.58
2022-11-02T05:35:21.644Z,81.48
2022-11-02T05:36:22.178Z,81.72
2022-11-02T05:37:21.701Z,81.31
2022-11-02T05:38:21.633Z,81.41
2022-11-02T05:39:21.650Z,81.52
2022-11-02T05:40:21.612Z,81.52
2022-11-02T05:41:21.725Z,81.82
2022-11-02T05:42:21.583Z,81.82
2022-11-02T05:43:21.694Z,81.72
2022-11-02T05:44:21.884Z,81.82
2022-11-02T05:45:24.490Z,82.13
2022-11-02T05:46:21.667Z,82.43
2022-11-02T05:47:21.699Z,82.13
2022-11-02T05:48:21.788Z,82.37
2022-11-02T05:49:21.903Z,82.37
2022-11-02T05:50:21.522Z,82.47
2022-11-02T05:51:21.892Z,82.68
2022-11-02T05:52:21.492Z,82.37
2022-11-02T05:53:21.472Z,82.88
2022-11-02T05:54:21.479Z,82.68
2022-11-02T05:55:21.458Z,82.57
2022-11-02T05:56:25.016Z,82.57
2022-11-02T05:57:21.850Z,83.09
2022-11-02T05:58:21.401Z,83.09
2022-11-02T05:59:21.726Z,82.98
2022-11-02T06:00:21.431Z,82.88
2022-11-02T06:01:21.718Z,83.09
2022-11-02T06:02:23.417Z,83.18
2022-11-02T06:03:21.456Z,83.12
2022-11-02T06:04:21.838Z,83.63
2022-11-02T06:05:21.473Z,83.23
2022-11-02T06:06:21.393Z,83.53
2022-11-02T06:07:21.449Z,83.33
2022-11-02T06:08:21.351Z,83.02
2022-11-02T06:09:21.632Z,83.43
2022-11-02T06:10:21.313Z,82.98
2022-11-02T06:11:21.318Z,83.02
2022-11-02T06:12:21.479Z,83.12
2022-11-02T06:13:21.654Z,83.23
2022-11-02T06:14:21.364Z,82.92
2022-11-02T06:15:21.414Z,83.02
2022-11-02T06:16:23.297Z,83.12
2022-11-02T06:17:21.441Z,82.82
2022-11-02T06:18:21.231Z,83.02
2022-11-02T06:19:21.327Z,83.43
2022-11-02T06:20:21.412Z,83.43
2022-11-02T06:21:21.354Z,83.33
2022-11-02T06:22:21.295Z,83.33
2022-11-02T06:23:21.224Z,83.02
2022-11-02T06:24:21.173Z,82.92
2022-11-02T06:25:21.239Z,83.53
2022-11-02T06:26:21.184Z,83.33
2022-11-02T06:27:21.137Z,83.33
2022-11-02T06:28:21.128Z,83.63
2022-11-02T06:29:21.172Z,83.43
2022-11-02T06:30:21.111Z,83.63
2022-11-02T06:31:21.104Z,83.33
2022-11-02T06:32:21.476Z,83.73
2022-11-02T06:33:21.046Z,83.18
2022-11-02T06:34:21.138Z,82.98
2022-11-02T06:35:21.204Z,82.78
2022-11-02T06:36:21.016Z,82.88
2022-11-02T06:37:21.529Z,82.88
2022-11-02T06:38:21.067Z,82.47
2022-11-02T06:39:21.074Z,82.78
2022-11-02T06:40:24.117Z,82.27
2022-11-02T06:41:21.189Z,81.96
2022-11-02T06:42:21.379Z,81.96
2022-11-02T06:43:21.330Z,81.86
2022-11-02T06:44:21.007Z,82.17
2022-11-02T06:45:20.971Z,81.76
2022-11-02T06:46:21.205Z,81.86
2022-11-02T06:47:20.993Z,82.37
2022-11-02T06:48:21.021Z,82.37
2022-11-02T06:49:21.115Z,82.17
2022-11-02T06:50:21.031Z,82.07
2022-11-02T06:51:21.115Z,81.96
2022-11-02T06:52:21.028Z,81.66
2022-11-02T06:53:20.884Z,81.41
2022-11-02T06:54:21.104Z,81.31
2022-11-02T06:55:21.225Z,81.41
2022-11-02T06:56:21.883Z,81.52
2022-11-02T06:57:20.946Z,81.41
2022-11-02T06:58:20.891Z,81.82
2022-11-02T06:59:21.151Z,81.52
2022-11-02T07:00:23.703Z,80.80
2022-11-02T07:01:21.163Z,81.11
2022-11-02T07:02:20.995Z,80.91
2022-11-02T07:03:20.989Z,81.21
2022-11-02T07:04:20.794Z,81.21
2022-11-02T07:05:20.923Z,81.21
2022-11-02T07:06:20.860Z,80.80
2022-11-02T07:07:20.895Z,80.60
2022-11-02T07:08:20.730Z,80.50
2022-11-02T07:09:20.736Z,80.40
2022-11-02T07:10:21.057Z,80.60
2022-11-02T07:11:21.019Z,79.99
2022-11-02T07:12:23.166Z,80.40
2022-11-02T07:13:20.691Z,80.50
2022-11-02T07:14:20.827Z,80.19
2022-11-02T07:15:20.718Z,81.01
2022-11-02T07:16:20.659Z,80.70
2022-11-02T07:17:20.710Z,80.70
2022-11-02T07:18:20.910Z,80.60
2022-11-02T07:19:20.950Z,80.29
2022-11-02T07:20:20.671Z,80.09
2022-11-02T07:22:20.701Z,80.29
2022-11-02T07:23:20.769Z,80.50
2022-11-02T07:24:20.613Z,80.50
2022-11-02T07:25:20.613Z,80.50
2022-11-02T07:26:20.777Z,81.11
2022-11-02T07:27:20.657Z,81.11
2022-11-02T07:28:20.555Z,81.11
2022-11-02T07:29:20.558Z,80.40
2022-11-02T07:30:20.502Z,80.91
2022-11-02T07:31:20.926Z,81.31
2022-11-02T07:32:20.559Z,80.50
2022-11-02T07:33:20.682Z,81.01
2022-11-02T07:34:20.519Z,80.70
2022-11-02T07:35:20.465Z,80.70
2022-11-02T07:36:20.445Z,81.01
2022-11-02T07:37:20.620Z,80.91
2022-11-02T07:38:20.695Z,80.91
2022-11-02T07:39:20.610Z,80.40
2022-11-02T07:40:20.422Z,80.91
2022-11-02T07:41:20.657Z,80.80
2022-11-02T07:42:20.606Z,80.91
2022-11-02T07:43:20.463Z,80.40
2022-11-02T07:44:20.372Z,80.70
2022-11-02T07:45:20.363Z,80.09
2022-11-02T07:46:20.322Z,80.16
2022-11-02T07:47:20.330Z,78.83
2022-11-02T07:48:20.321Z,79.44
2022-11-02T07:49:21.761Z,78.73
2022-11-02T07:50:20.327Z,79.14
2022-11-02T07:51:20.887Z,78.73
2022-11-02T07:52:20.833Z,78.93
2022-11-02T07:53:20.372Z,78.93
2022-11-02T07:54:20.352Z,79.44
2022-11-02T07:55:20.906Z,78.53
2022-11-02T07:56:20.456Z,78.80
2022-11-02T07:57:20.260Z,79.41
2022-11-02T07:58:20.252Z,77.87
2022-11-02T07:59:20.707Z,78.08
2022-11-02T08:00:20.288Z,78.80
2022-11-02T08:01:20.515Z,77.98
2022-11-02T08:02:20.317Z,77.98
2022-11-02T08:03:20.309Z,78.28
2022-11-02T08:05:20.173Z,78.08
2022-11-02T08:06:20.865Z,78.49
2022-11-02T08:07:20.318Z,78.49
2022-11-02T08:08:20.352Z,77.98
2022-11-02T08:09:20.260Z,78.89
2022-11-02T08:10:20.415Z,78.28
2022-11-02T08:11:20.156Z,78.39
2022-11-02T08:12:20.236Z,78.49
2022-11-02T08:13:20.416Z,78.39
2022-11-02T08:14:20.634Z,78.49
2022-11-02T08:15:20.143Z,78.39
2022-11-02T08:16:20.072Z,78.69
2022-11-02T08:17:20.235Z,78.49
2022-11-02T08:18:20.189Z,78.28
2022-11-02T08:19:20.113Z,78.49
2022-11-02T08:20:20.221Z,78.89
2022-11-02T08:21:20.238Z,78.49
2022-11-02T08:22:20.388Z,78.80
2022-11-02T08:23:20.120Z,77.98
2022-11-02T08:24:20.185Z,77.78
2022-11-02T08:25:19.987Z,77.67
2022-11-02T08:26:19.990Z,77.87
2022-11-02T08:27:19.959Z,77.78
2022-11-02T08:28:19.934Z,77.57
2022-11-02T08:29:19.939Z,77.98
2022-11-02T08:30:20.383Z,77.98
2022-11-02T08:31:19.894Z,78.39
2022-11-02T08:32:19.952Z,78.89
2022-11-02T08:33:19.893Z,78.08
2022-11-02T08:34:19.898Z,78.32
2022-11-02T08:35:19.866Z,78.63
2022-11-02T08:36:19.848Z,78.12
2022-11-02T08:37:19.880Z,78.12
2022-11-02T08:38:20.086Z,78.42
2022-11-02T08:39:19.809Z,79.14
2022-11-02T08:40:20.031Z,78.93
2022-11-02T08:41:19.844Z,78.12
2022-11-02T08:42:19.962Z,77.81
2022-11-02T08:43:19.803Z,78.02
2022-11-02T08:44:19.814Z,78.02
2022-11-02T08:45:19.777Z,78.63
2022-11-02T08:46:19.771Z,78.19
2022-11-02T08:47:19.760Z,78.39
2022-11-02T08:48:19.719Z,77.57
2022-11-02T08:49:19.743Z,77.78
2022-11-02T08:50:20.196Z,78.19
2022-11-02T08:51:20.205Z,77.03
2022-11-02T08:52:19.673Z,76.72
2022-11-02T08:53:20.076Z,77.13
2022-11-02T08:54:19.782Z,76.76
2022-11-02T08:55:19.775Z,77.67
2022-11-02T08:56:19.845Z,76.45
2022-11-02T08:57:19.645Z,77.26
2022-11-02T08:58:19.619Z,77.06
2022-11-02T08:59:19.625Z,77.23
2022-11-02T09:00:19.581Z,77.13
2022-11-02T09:01:19.725Z,76.31
2022-11-02T09:02:19.743Z,76.72
2022-11-02T09:03:25.960Z,76.99
2022-11-02T09:04:19.583Z,75.67
2022-11-02T09:05:19.577Z,75.98
2022-11-02T09:06:19.565Z,75.98
2022-11-02T09:07:19.555Z,74.96
2022-11-02T09:08:19.777Z,75.46
2022-11-02T09:09:19.700Z,75.40
2022-11-02T09:10:19.523Z,75.77
2022-11-02T09:11:19.564Z,76.11
2022-11-02T09:12:19.542Z,75.91
2022-11-02T09:13:19.547Z,75.98
2022-11-02T09:14:19.551Z,76.38
2022-11-02T09:15:19.464Z,76.28
2022-11-02T09:16:19.990Z,76.14
2022-11-02T09:17:19.464Z,75.63
2022-11-02T09:18:19.448Z,75.23
2022-11-02T09:19:19.446Z,75.84
2022-11-02T09:20:19.589Z,76.34
2022-11-02T09:21:19.583Z,74.88
2022-11-02T09:22:19.436Z,74.99
2022-11-02T09:23:19.382Z,75.70
2022-11-02T09:24:19.513Z,75.19
2022-11-02T09:25:19.516Z,74.79
2022-11-02T09:26:19.389Z,74.07
2022-11-02T09:27:19.394Z,74.28
2022-11-02T09:28:19.358Z,74.85
2022-11-02T09:29:19.408Z,73.53
2022-11-02T09:30:19.803Z,74.01
2022-11-02T09:31:19.275Z,74.65
2022-11-02T09:32:19.383Z,71.37
2022-11-02T09:33:19.308Z,70.12
2022-11-02T09:34:19.471Z,73.73
2022-11-02T09:35:19.384Z,70.05
2022-11-02T09:36:19.273Z,71.03
2022-11-02T09:37:19.371Z,68.84
2022-11-02T09:38:19.572Z,69.37
2022-11-02T09:39:19.437Z,70.01
2022-11-02T09:40:19.263Z,70.05
2022-11-02T09:41:19.347Z,70.45
2022-11-02T09:42:19.568Z,71.64
2022-11-02T09:43:19.251Z,71.64
2022-11-02T09:44:19.210Z,72.41
2022-11-02T09:45:19.157Z,70.89
2022-11-02T09:46:19.299Z,71.30
2022-11-02T09:48:23.502Z,70.08
2022-11-02T09:49:19.125Z,71.03
2022-11-02T09:50:19.340Z,73.02
2022-11-02T09:51:19.181Z,72.08
2022-11-02T09:52:19.255Z,70.93
2022-11-02T09:53:19.289Z,70.52
2022-11-02T09:54:19.269Z,70.49
2022-11-02T09:55:19.094Z,68.97
2022-11-02T09:56:19.414Z,68.60
2022-11-02T09:57:19.485Z,70.42
2022-11-02T09:58:19.057Z,70.01
2022-11-02T09:59:19.035Z,68.60
2022-11-02T10:00:19.852Z,68.70
2022-11-02T10:01:19.221Z,68.93
2022-11-02T10:02:19.284Z,68.83
2022-11-02T10:03:19.136Z,68.46
2022-11-02T10:04:19.093Z,69.51
2022-11-02T10:05:19.013Z,68.33
2022-11-02T10:06:19.399Z,66.31
2022-11-02T10:07:19.081Z,64.56
2022-11-02T10:08:19.165Z,65.54
2022-11-02T10:09:19.025Z,63.96
2022-11-02T10:10:18.937Z,65.01
2022-11-02T10:11:19.131Z,63.73
2022-11-02T10:12:19.032Z,62.46
2022-11-02T10:13:18.897Z,61.00
2022-11-02T10:14:18.932Z,60.67
2022-11-02T10:15:19.034Z,61.01
2022-11-02T10:16:18.874Z,57.26
2022-11-02T10:17:18.890Z,57.54
2022-11-02T10:18:18.854Z,56.51
2022-11-02T10:19:18.896Z,56.48
2022-11-02T10:20:18.835Z,54.45
2022-11-02T10:21:18.779Z,55.51
2022-11-02T10:22:19.020Z,55.05
2022-11-02T10:23:18.913Z,54.95
2022-11-02T10:24:18.790Z,54.39
2022-11-02T10:25:18.765Z,52.92
2022-11-02T10:26:18.782Z,53.82
2022-11-02T10:27:18.855Z,52.29
2022-11-02T10:28:18.916Z,53.50
2022-11-02T10:29:18.731Z,52.59
2022-11-02T10:30:18.967Z,54.05
2022-11-02T10:31:18.914Z,56.06
2022-11-02T10:32:18.775Z,54.72
2022-11-02T10:33:19.201Z,56.23
2022-11-02T10:34:18.698Z,55.58
2022-11-02T10:35:36.732Z,52.84
2022-11-02T10:36:19.548Z,53.95
2022-11-02T10:37:18.673Z,53.62
2022-11-02T10:38:18.667Z,52.77
2022-11-02T10:39:18.629Z,51.07
2022-11-02T10:40:18.626Z,51.57
2022-11-02T10:41:18.624Z,50.87
2022-11-02T10:42:18.627Z,49.16
2022-11-02T10:43:19.191Z,50.69
2022-11-02T10:44:18.765Z,50.39
2022-11-02T10:45:18.766Z,50.79
2022-11-02T10:46:18.540Z,50.49
2022-11-02T10:47:18.696Z,48.57
2022-11-02T10:48:18.526Z,48.43
2022-11-02T10:49:19.092Z,50.53
2022-11-02T10:50:18.549Z,52.39
2022-11-02T10:51:18.922Z,52.62
2022-11-02T10:52:18.735Z,55.89
2022-11-02T10:54:22.824Z,55.03
2022-11-02T10:55:18.545Z,54.30
2022-11-02T10:56:18.513Z,56.17
2022-11-02T10:57:18.492Z,56.73
2022-11-02T10:58:18.785Z,57.87
2022-11-02T10:59:18.702Z,57.36
2022-11-02T11:00:18.568Z,58.07
2022-11-02T11:01:18.568Z,58.01
2022-11-02T11:02:18.459Z,57.96
2022-11-02T11:03:18.537Z,56.20
2022-11-02T11:04:18.444Z,55.56
2022-11-02T11:05:18.398Z,54.20
2022-11-02T11:06:18.361Z,52.57
2022-11-02T11:07:18.401Z,52.24
2022-11-02T11:08:18.444Z,52.94
2022-11-02T11:09:18.378Z,52.12
2022-11-02T11:10:18.528Z,51.14
2022-11-02T11:11:18.424Z,51.34
2022-11-02T11:12:18.519Z,50.73
2022-11-02T11:16:20.635Z,49.91
2022-11-02T11:20:18.520Z,48.11
2022-11-02T11:21:18.423Z,47.08
2022-11-02T11:22:18.416Z,48.73
2022-11-02T11:23:18.255Z,49.65
2022-11-02T11:24:18.424Z,51.59
2022-11-02T11:25:20.715Z,51.64
2022-11-02T11:26:18.260Z,52.04
2022-11-02T11:27:18.175Z,52.49
2022-11-02T11:28:18.202Z,52.06
2022-11-02T11:29:18.473Z,50.31
2022-11-02T11:30:33.533Z,50.68
2022-11-02T11:31:18.353Z,49.80
2022-11-02T11:32:18.568Z,49.71
2022-11-02T11:33:18.096Z,51.61
2022-11-02T11:34:18.273Z,49.48
2022-11-02T11:35:18.126Z,49.66
2022-11-02T11:36:18.117Z,49.48
2022-11-02T11:37:18.274Z,49.38
2022-11-02T11:38:18.102Z,48.96
2022-11-02T11:39:18.090Z,49.33
2022-11-02T11:40:18.232Z,49.31
2022-11-02T11:41:18.062Z,48.01
2022-11-02T11:42:18.041Z,47.41
2022-11-02T11:43:18.017Z,47.53
2022-11-02T11:44:18.049Z,48.71
2022-11-02T11:45:18.032Z,47.31
2022-11-02T11:46:18.485Z,48.01
2022-11-02T11:47:18.244Z,48.38
2022-11-02T11:48:17.937Z,47.91
2022-11-02T11:49:17.967Z,48.13
2022-11-02T11:50:21.040Z,48.51
2022-11-02T11:51:22.813Z,49.01
2022-11-02T11:52:18.196Z,48.31
2022-11-02T11:53:18.096Z,46.81
2022-11-02T11:54:18.184Z,47.23
2022-11-02T11:55:18.156Z,47.77
2022-11-02T11:56:18.173Z,50.56
2022-11-02T11:57:18.046Z,49.66
2022-11-02T11:58:18.317Z,49.88
2022-11-02T11:59:18.279Z,49.76
2022-11-02T12:00:17.876Z,47.97
2022-11-02T12:01:18.003Z,49.25
2022-11-02T12:02:18.112Z,50.89
2022-11-02T12:03:18.303Z,51.36
2022-11-02T12:04:17.873Z,52.01
2022-11-02T12:05:18.037Z,52.37
2022-11-02T12:06:18.028Z,53.07
2022-11-02T12:07:17.995Z,53.02
2022-11-02T12:08:17.833Z,53.22
2022-11-02T12:09:17.818Z,52.04
2022-11-02T12:10:17.771Z,52.87
2022-11-02T12:11:19.127Z,52.57
2022-11-02T12:12:17.769Z,51.46
2022-11-02T12:13:18.035Z,52.06
2022-11-02T12:14:18.554Z,51.93
2022-11-02T12:15:17.742Z,51.73
2022-11-02T12:16:17.870Z,50.91
2022-11-02T12:17:17.785Z,51.51
2022-11-02T12:18:17.690Z,51.71
2022-11-02T12:19:17.888Z,51.61
2022-11-02T12:20:18.548Z,52.11
2022-11-02T12:21:17.932Z,49.80
2022-11-02T12:22:17.696Z,50.40
2022-11-02T12:23:17.834Z,51.73
2022-11-02T12:24:18.019Z,51.03
2022-11-02T12:25:17.632Z,51.54
2022-11-02T12:26:17.629Z,52.42
2022-11-02T12:27:17.612Z,51.51
2022-11-02T12:28:17.629Z,51.51
2022-11-02T12:29:17.596Z,52.19
2022-11-02T12:30:17.595Z,52.80
2022-11-02T12:31:17.539Z,51.91
2022-11-02T12:32:17.577Z,51.49
2022-11-02T12:33:17.529Z,50.89
2022-11-02T12:34:17.786Z,51.09
2022-11-02T12:35:32.835Z,51.43
2022-11-02T12:36:18.175Z,51.81
2022-11-02T12:37:35.783Z,51.11
2022-11-02T12:38:17.543Z,51.29
2022-11-02T12:39:17.499Z,51.73
2022-11-02T12:40:17.994Z,52.17
2022-11-02T12:41:17.471Z,53.00
2022-11-02T12:42:17.456Z,53.60
2022-11-02T12:43:17.751Z,54.41
2022-11-02T12:44:17.444Z,54.23
2022-11-02T12:45:17.411Z,53.83
2022-11-02T12:46:17.419Z,54.86
2022-11-02T12:47:17.608Z,55.66
2022-11-02T12:48:17.532Z,55.46
2022-11-02T12:49:17.357Z,56.81
2022-11-02T12:50:17.424Z,55.41
2022-11-02T12:51:17.335Z,56.32
2022-11-02T12:52:17.389Z,56.98
2022-11-02T12:53:17.387Z,57.62
2022-11-02T12:54:17.419Z,58.45
2022-11-02T12:55:17.715Z,59.29
2022-11-02T12:56:17.352Z,59.72
2022-11-02T12:57:17.281Z,60.94
2022-11-02T12:58:17.316Z,61.07
2022-11-02T12:59:17.292Z,61.68
2022-11-02T13:00:17.301Z,62.15
2022-11-02T13:01:17.441Z,61.85
2022-11-02T13:02:17.311Z,59.92
2022-11-02T13:03:17.273Z,60.71
2022-11-02T13:04:17.217Z,60.68